createdAt,value
2019-05-02T00:05:04.497Z,22.9
2019-05-02T00:20:04.675Z,22.9
2019-05-02T00:35:04.669Z,22.9
2019-05-02T00:50:06.130Z,22.9
2019-05-02T01:05:04.532Z,22.9
2019-05-02T01:20:07.335Z,22.8
2019-05-02T01:35:03.336Z,22.6
2019-05-02T01:50:03.924Z,22.6
2019-05-02T02:05:04.486Z,22.5
2019-05-02T02:20:05.446Z,22.5
2019-05-02T02:35:09.859Z,22.4
2019-05-02T02:50:05.302Z,22.4
2019-05-02T03:05:04.729Z,22.4
2019-05-02T03:20:06.307Z,22.4
2019-05-02T03:35:03.554Z,22.4
2019-05-02T03:50:08.176Z,22.4
2019-05-02T04:05:03.993Z,22.4
2019-05-02T04:20:09.184Z,22.4
2019-05-02T04:35:05.300Z,22.4
2019-05-02T04:50:07.442Z,22.5
2019-05-02T05:05:04.591Z,22.5
2019-05-02T05:20:10.971Z,22.6
2019-05-02T05:35:08.825Z,22.7
2019-05-02T05:50:03.125Z,22.8
2019-05-02T06:05:04.444Z,22.9
2019-05-02T06:20:07.216Z,23
2019-05-02T06:35:03.995Z,23.2
2019-05-02T06:50:03.223Z,23.4
2019-05-02T07:05:04.108Z,23.5
2019-05-02T07:20:05.315Z,23.7
2019-05-02T07:35:05.153Z,23.8
2019-05-02T07:50:05.204Z,23.9
2019-05-02T08:05:03.510Z,24
2019-05-02T08:20:08.320Z,24.1
2019-05-02T08:35:05.665Z,24
2019-05-02T08:50:07.693Z,23.7
2019-05-02T09:05:05.975Z,23.8
2019-05-02T09:20:10.532Z,24.1
2019-05-02T09:35:06.113Z,24.2
2019-05-02T09:50:04.547Z,24.4
2019-05-02T10:05:04.094Z,24.4
2019-05-02T10:20:04.816Z,24.5
2019-05-02T10:35:05.677Z,24.6
2019-05-02T10:50:04.863Z,24.6
2019-05-02T11:05:04.656Z,24.7
2019-05-02T11:20:05.438Z,24.8
2019-05-02T11:35:04.830Z,24.8
2019-05-02T11:50:06.215Z,24.9
2019-05-02T12:05:03.732Z,24.9
2019-05-02T12:20:04.828Z,24.9
2019-05-02T12:35:05.880Z,24.9
2019-05-02T12:50:03.193Z,24.9
2019-05-02T13:05:03.489Z,24.9
2019-05-02T13:20:05.930Z,24.9
2019-05-02T13:35:04.012Z,24.9
2019-05-02T13:50:03.825Z,24.9
2019-05-02T14:05:04.287Z,25
2019-05-02T14:20:10.156Z,25
2019-05-02T14:35:04.897Z,25
2019-05-02T14:50:05.055Z,25
2019-05-02T15:05:04.089Z,25
2019-05-02T15:20:04.915Z,24.9
2019-05-02T15:35:03.739Z,24.9
2019-05-02T15:50:04.948Z,24.7
2019-05-02T16:05:05.379Z,24.7
2019-05-02T16:20:07.506Z,24.6
2019-05-02T16:35:11.858Z,24.5
2019-05-02T16:50:03.241Z,24.5
2019-05-02T17:05:07.983Z,24.4
2019-05-02T17:20:07.175Z,24.3
2019-05-02T17:35:09.719Z,24.1
2019-05-02T17:50:06.797Z,23.9
2019-05-02T18:05:04.234Z,23.8
2019-05-02T18:20:06.083Z,23.6
2019-05-02T18:35:06.129Z,23.5
2019-05-02T18:50:06.031Z,23.4
2019-05-02T19:05:06.075Z,23.3
2019-05-02T19:20:06.111Z,23.1
2019-05-02T19:35:06.889Z,23
2019-05-02T19:50:03.584Z,22.9
2019-05-02T20:05:05.063Z,22.8
2019-05-02T20:20:06.973Z,22.7
2019-05-02T20:35:03.267Z,22.7
2019-05-02T20:50:05.884Z,22.5
2019-05-02T21:05:03.380Z,22.5
2019-05-02T21:20:06.899Z,22.5
2019-05-02T21:35:03.268Z,22.5
2019-05-02T21:50:04.190Z,22.5
2019-05-02T22:05:03.513Z,22.5
2019-05-02T22:20:03.953Z,22.5
2019-05-02T22:35:02.879Z,22.5
2019-05-02T22:50:02.859Z,22.5
2019-05-02T23:05:04.685Z,22.5
2019-05-02T23:20:04.279Z,22.5
2019-05-02T23:35:03.227Z,22.5
2019-05-02T23:50:03.709Z,22.5
